Time;durP1;ratioP1;P1;durP2;ratioP2;P2;SDS_P1;SDS_P2;PMS_P1;PMS_P2;Temp;Humidity;BMP_temperature;BMP_pressure;BME280_temperature;BME280_humidity;BME280_pressure;Samples;Min_cycle;Max_cycle;Signal;HPM_P1;HPM_P2
2021/03/22 00:01:12;;;;;;;29.42;13.55;;;;;;;-1.64;72.54;99292.02;1765944;80;21666;-76
2021/03/22 00:03:39;;;;;;;39.48;16.87;;;;;;;-1.63;72.50;99293.71;1771024;80;21673;-76
2021/03/22 00:06:06;;;;;;;34.13;14.87;;;;;;;-1.63;72.56;99297.55;1769262;80;21119;-76
2021/03/22 00:08:34;;;;;;;26.23;12.75;;;;;;;-1.59;72.56;99294.14;1772028;80;22157;-76
2021/03/22 00:11:01;;;;;;;30.32;12.60;;;;;;;-1.51;72.58;99289.39;1770463;80;21017;-76
2021/03/22 00:13:29;;;;;;;25.37;13.78;;;;;;;-1.48;72.57;99293.23;1762371;80;21155;-76
2021/03/22 00:15:58;;;;;;;;;;;;;;;-1.44;72.62;99295.75;1767065;80;21649;-76
2021/03/22 00:18:30;;;;;;;20.57;9.05;;;;;;;-1.38;72.67;99298.70;1766204;80;20285;-77
2021/03/22 00:20:58;;;;;;;16.07;6.97;;;;;;;-1.30;72.68;99299.52;1763810;80;21210;-77
2021/03/22 00:23:25;;;;;;;11.90;5.22;;;;;;;-1.22;72.66;99301.60;1763417;80;23947;-77
2021/03/22 00:25:53;;;;;;;9.30;4.35;;;;;;;-1.13;72.67;99296.41;1764387;80;21238;-78
2021/03/22 00:28:22;;;;;;;7.45;3.25;;;;;;;-1.05;72.57;99311.73;1764447;80;21199;-77
2021/03/22 00:30:49;;;;;;;12.35;4.42;;;;;;;-1.02;72.52;99308.31;1766420;80;21156;-77
2021/03/22 00:33:19;;;;;;;10.32;4.03;;;;;;;-0.96;72.52;99304.41;1767279;80;22180;-76
2021/03/22 00:35:46;;;;;;;7.72;3.60;;;;;;;-0.89;72.51;99307.36;1768801;80;21160;-77
2021/03/22 00:38:15;;;;;;;5.05;2.95;;;;;;;-0.82;72.50;99301.31;1762620;80;21142;-77
2021/03/22 00:40:45;;;;;;;10.93;5.90;;;;;;;-0.77;72.51;99302.13;1768688;80;21317;-77
2021/03/22 00:43:12;;;;;;;6.40;4.30;;;;;;;-0.73;72.48;99298.70;1763092;80;21164;-77
2021/03/22 00:45:39;;;;;;;10.58;3.33;;;;;;;-0.66;72.47;99301.20;1764638;80;21212;-77
2021/03/22 00:48:07;;;;;;;9.08;4.20;;;;;;;-0.64;72.41;99299.45;1763135;80;21160;-76
2021/03/22 00:50:41;;;;;;;7.00;3.42;;;;;;;-0.60;72.43;99303.70;1765984;80;21770;-77
2021/03/22 00:53:11;;;;;;;7.75;2.90;;;;;;;-0.57;72.39;99301.11;1766452;80;21144;-77
2021/03/22 00:55:38;;;;;;;8.28;3.10;;;;;;;-0.56;72.36;99288.70;1769168;80;21148;-76
2021/03/22 00:58:05;;;;;;;7.65;3.05;;;;;;;-0.53;72.33;99284.85;1764828;80;21203;-77
2021/03/22 01:00:38;;;;;;;6.28;3.08;;;;;;;-0.53;72.33;99289.98;1771217;80;22692;-77
2021/03/22 01:03:08;;;;;;;6.90;2.95;;;;;;;-0.50;72.35;99288.66;1765172;80;21192;-77
2021/03/22 01:05:35;;;;;;;8.28;2.98;;;;;;;-0.51;72.28;99295.92;1769574;79;21225;-78
2021/03/22 01:08:03;;;;;;;9.28;3.47;;;;;;;-0.50;72.30;99289.95;1767367;80;21174;-77
2021/03/22 01:10:45;;;;;;;5.97;4.47;;;;;;;-0.48;72.30;99288.20;1771281;80;22098;-77
2021/03/22 01:13:25;;;;;;;6.30;3.17;;;;;;;-0.45;72.34;99283.03;1770922;80;21192;-77
2021/03/22 01:15:52;;;;;;;5.55;2.87;;;;;;;-0.43;72.28;99294.14;1769846;80;21198;-77
2021/03/22 01:18:28;;;;;;;9.63;3.50;;;;;;;-0.42;72.27;99280.47;1769119;79;21167;-76
2021/03/22 01:21:00;;;;;;;8.15;3.35;;;;;;;-0.39;72.28;99285.56;1779371;80;21632;-76
2021/03/22 01:23:29;;;;;;;7.45;2.85;;;;;;;-0.38;72.25;99279.56;1763904;80;22146;-77
2021/03/22 01:25:57;;;;;;;3.87;2.42;;;;;;;-0.36;72.15;99282.97;1766301;80;21574;-77
2021/03/22 01:28:24;;;;;;;8.30;3.47;;;;;;;-0.36;72.13;99285.53;1770491;80;21090;-77
2021/03/22 01:30:58;;;;;;;9.55;3.05;;;;;;;-0.33;72.07;99293.19;1766355;80;21206;-77
2021/03/22 01:33:27;;;;;;;5.17;2.67;;;;;;;-0.27;71.91;99290.56;1742655;80;21187;-76
2021/03/22 01:36:04;;;;;;;5.62;2.62;;;;;;;-0.21;72.04;99288.36;1769538;80;23234;-76
2021/03/22 01:38:31;;;;;;;;;;;;;;;-0.16;71.88;99287.05;1770356;80;21546;-77
2021/03/22 01:41:17;;;;;;;;;;;;;;;-0.10;71.53;99279.27;1772469;80;20243;-77
2021/03/22 01:44:33;;;;;;;7.03;2.10;;;;;;;0.02;71.80;99282.97;1839474;76;22404;-76
2021/03/22 01:47:06;;;;;;;3.95;2.22;;;;;;;0.02;71.85;99273.98;1812793;77;21642;-78
2021/03/22 01:49:38;;;;;;;3.15;1.40;;;;;;;0.08;71.79;99268.77;1810057;78;21638;-78
2021/03/22 01:52:07;;;;;;;4.42;1.75;;;;;;;0.12;71.79;99288.42;1808182;77;21006;-77
2021/03/22 01:54:33;;;;;;;5.78;2.35;;;;;;;0.14;71.73;99276.42;1808719;78;21573;-77
2021/03/22 01:57:33;;;;;;;7.60;2.67;;;;;;;0.15;71.71;99280.68;1814314;77;21077;-77
2021/03/22 02:00:26;;;;;;;8.70;3.62;;;;;;;0.18;71.64;99280.64;1801063;77;22479;-77
2021/03/22 02:03:03;;;;;;;9.78;3.85;;;;;;;0.11;71.67;99285.86;1761758;80;21083;-78
2021/03/22 02:05:32;;;;;;;5.60;2.40;;;;;;;0.10;71.67;99283.73;1766666;79;21409;-78
2021/03/22 02:08:13;;;;;;;6.83;3.35;;;;;;;0.06;71.50;99278.23;1770414;80;21105;-78
2021/03/22 02:10:43;;;;;;;3.45;2.10;;;;;;;0.06;71.63;99285.09;1765262;80;21056;-78
2021/03/22 02:13:11;;;;;;;4.08;2.25;;;;;;;0.05;71.43;99281.64;1764419;80;21656;-78
2021/03/22 02:15:41;;;;;;;5.17;1.92;;;;;;;0.07;71.46;99277.35;1771424;80;21100;-78
2021/03/22 02:18:35;;;;;;;4.30;2.15;;;;;;;0.11;71.49;99289.30;1770336;80;22447;-78
2021/03/22 02:21:49;;;;;;;3.87;2.02;;;;;;;0.21;71.46;99282.32;1772346;78;22057;-77
2021/03/22 02:24:30;;;;;;;3.60;2.08;;;;;;;0.20;71.49;99279.34;1641921;84;21223;-77
2021/03/22 02:27:25;;;;;;;3.37;1.85;;;;;;;0.19;71.32;99279.76;1674860;84;22422;-77
2021/03/22 02:30:39;;;;;;;5.05;1.98;;;;;;;0.19;71.33;99284.89;1668853;84;21345;-77
2021/03/22 02:33:40;;;;;;;5.00;2.35;;;;;;;0.24;70.98;99287.42;1675356;83;21219;-77
2021/03/22 02:36:12;;;;;;;4.30;2.17;;;;;;;0.27;71.14;99287.81;1674734;83;21194;-78
2021/03/22 02:39:00;;;;;;;6.55;1.90;;;;;;;0.31;71.18;99283.05;1800966;77;22792;-77
2021/03/22 02:41:41;;;;;;;5.92;2.40;;;;;;;0.27;71.19;99291.66;1766257;80;21170;-77
2021/03/22 02:44:19;;;;;;;6.12;2.62;;;;;;;0.24;71.17;99294.27;1767908;80;21369;-78
2021/03/22 02:47:01;;;;;;;7.30;3.30;;;;;;;0.23;71.20;99302.86;1767758;80;21157;-78
2021/03/22 02:49:31;;;;;;;5.45;2.40;;;;;;;0.20;71.25;99299.45;1767407;80;21033;-78
2021/03/22 02:52:32;;;;;;;5.42;2.80;;;;;;;0.21;71.25;99308.00;1767647;80;21749;-77
2021/03/22 02:55:11;;;;;;;4.17;2.27;;;;;;;0.21;71.25;99310.56;1764507;79;21021;-76
2021/03/22 02:57:46;;;;;;;4.87;2.87;;;;;;;0.18;71.23;99310.16;1765723;80;21211;-77
2021/03/22 03:00:28;;;;;;;6.87;2.55;;;;;;;0.18;71.29;99316.59;1772486;80;21654;-77
2021/03/22 03:03:02;;;;;;;8.10;3.00;;;;;;;0.16;71.30;99314.90;1770307;80;21002;-78
2021/03/22 03:05:33;;;;;;;5.62;2.50;;;;;;;0.17;71.36;99317.47;1765185;80;21168;-78
2021/03/22 03:08:10;;;;;;;4.53;2.55;;;;;;;0.17;71.40;99316.63;1766315;80;21186;-78
2021/03/22 03:10:37;;;;;;;;;;;;;;;0.14;71.34;99322.64;1769619;80;21563;-76
2021/03/22 03:13:04;;;;;;;6.55;2.70;;;;;;;0.14;71.46;99322.64;1766154;80;20252;-77
2021/03/22 03:15:32;;;;;;;6.47;2.50;;;;;;;0.14;71.53;99321.77;1768619;80;21629;-77
2021/03/22 03:17:59;;;;;;;8.13;3.05;;;;;;;0.14;71.53;99321.36;1770703;80;21183;-77
2021/03/22 03:20:29;;;;;;;4.47;1.90;;;;;;;0.14;71.59;99323.92;1767890;80;21618;-77
2021/03/22 03:22:58;;;;;;;4.90;2.20;;;;;;;0.14;71.54;99326.48;1770002;80;22073;-77
2021/03/22 03:25:28;;;;;;;4.05;2.42;;;;;;;0.14;71.58;99327.77;1763374;80;21016;-76
2021/03/22 03:27:55;;;;;;;4.05;2.10;;;;;;;0.13;71.60;99333.75;1769031;80;21057;-77
2021/03/22 03:30:30;;;;;;;3.92;2.00;;;;;;;0.12;71.57;99326.93;1764598;80;21202;-77
2021/03/22 03:32:58;;;;;;;5.80;2.17;;;;;;;0.10;71.61;99328.66;1760556;80;21184;-77
2021/03/22 03:35:29;;;;;;;7.45;2.00;;;;;;;0.09;71.70;99330.81;1765127;80;21203;-77
2021/03/22 03:37:57;;;;;;;3.35;1.95;;;;;;;0.08;71.72;99326.53;1768955;80;21243;-77
2021/03/22 03:40:30;;;;;;;3.75;1.85;;;;;;;0.07;71.69;99332.55;1772306;80;21181;-77
2021/03/22 03:42:57;;;;;;;2.27;1.40;;;;;;;0.05;71.82;99343.25;1767182;80;21001;-78
2021/03/22 03:45:28;;;;;;;3.83;1.95;;;;;;;0.03;71.89;99337.31;1768088;80;21151;-78
2021/03/22 03:47:56;;;;;;;5.15;1.98;;;;;;;0.00;72.03;99338.63;1767668;80;21224;-77
2021/03/22 03:50:27;;;;;;;4.58;1.80;;;;;;;-0.03;71.96;99337.34;1772394;79;21449;-77
2021/03/22 03:52:55;;;;;;;4.40;2.35;;;;;;;-0.07;71.94;99342.11;1770093;80;21626;-78
2021/03/22 03:55:26;;;;;;;4.55;1.75;;;;;;;-0.13;72.00;99335.77;1770226;80;21636;-77
2021/03/22 03:57:54;;;;;;;5.35;1.90;;;;;;;-0.21;72.04;99338.39;1769109;80;21273;-77
2021/03/22 04:00:28;;;;;;;7.33;2.27;;;;;;;-0.30;72.07;99339.34;1768506;80;21217;-78
2021/03/22 04:02:57;;;;;;;5.53;2.20;;;;;;;-0.36;72.12;99347.09;1769707;80;21203;-77
2021/03/22 04:05:27;;;;;;;4.25;1.72;;;;;;;-0.42;72.13;99351.01;1765640;80;21175;-77
2021/03/22 04:07:55;;;;;;;4.58;1.98;;;;;;;-0.47;72.18;99356.60;1771179;80;21036;-77
2021/03/22 04:10:22;;;;;;;5.72;1.90;;;;;;;-0.53;72.20;99355.38;1770327;80;21137;-76
2021/03/22 04:12:49;;;;;;;4.75;2.05;;;;;;;-0.59;72.27;99351.55;1768685;80;21200;-77
2021/03/22 04:15:16;;;;;;;4.17;1.70;;;;;;;-0.63;72.38;99360.14;1771261;80;21234;-78
2021/03/22 04:17:43;;;;;;;6.85;2.05;;;;;;;-0.68;72.43;99365.30;1766192;80;21230;-77
2021/03/22 04:20:13;;;;;;;4.15;1.62;;;;;;;-0.73;72.53;99365.36;1767617;80;21151;-78
2021/03/22 04:22:40;;;;;;;4.62;2.02;;;;;;;-0.76;72.49;99362.78;1768532;80;21171;-78
2021/03/22 04:25:09;;;;;;;3.80;1.75;;;;;;;-0.82;72.46;99360.27;1766222;80;22198;-78
2021/03/22 04:27:36;;;;;;;7.67;2.60;;;;;;;-0.87;72.52;99367.13;1765567;80;21143;-77
2021/03/22 04:30:08;;;;;;;5.67;2.40;;;;;;;-0.91;72.54;99360.34;1772309;80;21220;-77
2021/03/22 04:32:36;;;;;;;4.50;2.15;;;;;;;-0.95;72.59;99362.52;1771378;79;21105;-75
2021/03/22 04:35:05;;;;;;;3.90;2.00;;;;;;;-0.97;72.71;99364.23;1768619;80;21634;-78
2021/03/22 04:37:32;;;;;;;6.10;2.20;;;;;;;-1.01;72.78;99368.53;1750357;80;21217;-77
2021/03/22 04:39:59;;;;;;;4.92;1.80;;;;;;;-1.05;72.77;99370.67;1763538;80;21621;-80
2021/03/22 04:42:25;;;;;;;5.33;2.05;;;;;;;-1.06;72.81;99368.14;1766931;80;21128;-81
2021/03/22 04:44:53;;;;;;;3.25;1.98;;;;;;;-1.06;72.83;99378.39;1763004;80;21635;-81
2021/03/22 04:47:19;;;;;;;3.92;2.00;;;;;;;-1.06;72.94;99378.39;1766659;80;21141;-81
2021/03/22 04:49:47;;;;;;;5.78;2.08;;;;;;;-1.06;72.92;99382.23;1763663;80;21205;-80
2021/03/22 04:52:13;;;;;;;5.78;2.60;;;;;;;-1.06;72.96;99383.52;1764883;80;21234;-80
2021/03/22 04:54:41;;;;;;;5.42;2.10;;;;;;;-1.03;72.97;99379.22;1764132;80;21177;-80
2021/03/22 04:57:24;;;;;;;5.75;2.17;;;;;;;-1.00;73.10;99384.75;1762322;80;21158;-80
2021/03/22 04:59:52;;;;;;;5.60;2.05;;;;;;;-0.78;73.34;99387.60;1764667;80;21198;-79
2021/03/22 05:02:19;;;;;;;8.18;1.98;;;;;;;-0.17;73.58;99388.80;1765943;80;21211;-79
2021/03/22 05:04:47;;;;;;;4.12;2.17;;;;;;;0.48;73.48;99395.44;1764617;80;21598;-80
2021/03/22 05:07:15;;;;;;;;;;;;;;;0.82;72.65;99400.16;1763436;80;21582;-79
2021/03/22 05:09:42;;;;;;;4.00;2.25;;;;;;;0.88;72.43;99395.78;1763758;80;20334;-80
2021/03/22 05:12:11;;;;;;;9.25;1.92;;;;;;;1.38;73.08;99399.80;1767392;80;21250;-80
2021/03/22 05:17:17;;;;;;;7.17;2.87;;;;;;;2.95;72.68;99399.53;1802776;78;23021;-80
2021/03/22 05:19:44;;;;;;;9.65;3.20;;;;;;;3.51;72.23;99409.02;1764932;80;21056;-79
2021/03/22 05:22:11;;;;;;;3.58;2.60;;;;;;;4.08;72.00;99412.33;1765469;80;21202;-79
2021/03/22 05:24:38;;;;;;;7.78;2.92;;;;;;;4.57;71.73;99413.63;1764630;80;21104;-81
2021/03/22 05:27:07;;;;;;;6.67;3.80;;;;;;;5.14;71.59;99413.27;1770298;80;21009;-80
2021/03/22 05:29:34;;;;;;;10.78;6.62;;;;;;;5.54;70.74;99415.92;1773541;80;21241;-80
2021/03/22 05:32:02;;;;;;;15.93;10.28;;;;;;;5.68;70.32;99407.72;1762838;80;21029;-80
2021/03/22 05:34:29;;;;;;;24.52;13.58;;;;;;;5.86;69.95;99412.31;1766678;80;21278;-81
2021/03/22 05:36:56;;;;;;;16.23;10.28;;;;;;;6.14;70.17;99408.83;1767439;80;21072;-83
2021/03/22 05:39:23;;;;;;;24.10;14.40;;;;;;;6.25;69.67;99409.31;1769059;80;21045;-80
2021/03/22 05:42:01;;;;;;;7.62;3.40;;;;;;;6.58;69.80;99415.48;1764157;80;21187;-82
2021/03/22 05:45:01;;;;;;;5.92;3.30;;;;;;;6.62;68.60;99413.19;1767820;80;21686;-80
2021/03/22 05:47:42;;;;;;;5.45;2.70;;;;;;;6.91;69.99;99415.55;1764241;80;21406;-83
2021/03/22 05:50:27;;;;;;;3.77;2.30;;;;;;;7.04;68.82;99422.91;1743037;80;21641;-81
2021/03/22 05:53:20;;;;;;;4.03;2.33;;;;;;;7.12;69.33;99425.59;1765663;80;21246;-82
2021/03/22 05:55:52;;;;;;;5.00;2.25;;;;;;;7.47;68.99;99431.63;1763330;80;21195;-82
2021/03/22 05:58:45;;;;;;;2.98;1.70;;;;;;;7.64;68.43;99429.20;1764953;80;21228;-81
2021/03/22 06:01:39;;;;;;;3.62;1.55;;;;;;;7.87;68.82;99431.33;1766133;80;22558;-82
2021/03/22 06:04:23;;;;;;;4.60;1.90;;;;;;;7.75;68.57;99434.82;1768802;80;21159;-78
2021/03/22 06:06:51;;;;;;;2.60;1.37;;;;;;;7.73;67.81;99437.96;1764847;80;21625;-81
2021/03/22 06:09:27;;;;;;;;;;;;;;;7.55;67.98;99439.98;1767877;80;21708;-81
2021/03/22 06:12:24;;;;;;;9.38;2.30;;;;;;;7.58;66.74;99440.69;1770020;80;20260;-79
2021/03/22 06:15:00;;;;;;;;;;;;;;;7.10;66.91;99436.94;1767813;80;21567;-78
2021/03/22 06:17:35;;;;;;;2.53;1.70;;;;;;;7.15;68.03;99438.92;1766368;80;20291;-82
2021/03/22 06:20:07;;;;;;;3.67;1.67;;;;;;;7.25;68.21;99413.44;1769219;79;21616;-78
2021/03/22 06:23:30;;;;;;;6.62;2.15;;;;;;;7.16;64.81;99444.50;1797422;78;22716;-79
2021/03/22 06:25:57;;;;;;;4.08;2.00;;;;;;;6.95;67.80;99440.51;1761716;79;21049;-80
2021/03/22 06:28:31;;;;;;;2.65;1.80;;;;;;;7.05;67.12;99450.55;1747298;80;21221;-79
2021/03/22 06:31:09;;;;;;;3.72;1.50;;;;;;;6.90;67.13;99447.61;1775951;80;21066;-80
2021/03/22 06:33:44;;;;;;;3.30;1.82;;;;;;;6.80;66.26;99454.02;1765629;80;21052;-81
2021/03/22 06:36:19;;;;;;;2.12;1.40;;;;;;;6.61;66.59;99445.20;1769024;79;22216;-81
2021/03/22 06:38:52;;;;;;;2.95;1.67;;;;;;;5.96;64.50;99434.44;1763971;79;21651;-81
2021/03/22 06:41:53;;;;;;;4.12;2.02;;;;;;;5.36;64.72;99458.33;1768062;80;21155;-81
2021/03/22 06:44:37;;;;;;;3.90;1.60;;;;;;;5.32;67.37;99454.57;1767249;80;21140;-81
2021/03/22 06:47:16;;;;;;;2.40;1.40;;;;;;;5.74;67.20;99455.44;1767325;79;21670;-81
2021/03/22 06:49:47;;;;;;;4.15;1.67;;;;;;;5.64;66.53;99460.53;1767568;79;23613;-78
2021/03/22 06:52:25;;;;;;;3.58;1.40;;;;;;;5.81;67.44;99463.42;1762608;79;21194;-79
2021/03/22 06:54:57;;;;;;;2.77;1.60;;;;;;;5.59;65.51;99470.56;1762752;79;21473;-79
2021/03/22 06:57:28;;;;;;;2.90;1.50;;;;;;;5.30;64.65;99472.75;1768214;80;21283;-79
2021/03/22 07:00:18;;;;;;;4.87;2.37;;;;;;;5.25;66.61;99479.80;1766496;79;21105;-80
2021/03/22 07:02:58;;;;;;;6.15;2.90;;;;;;;5.15;65.83;99476.65;1762988;79;21211;-79
2021/03/22 07:05:42;;;;;;;6.58;3.40;;;;;;;4.93;65.92;99485.92;1766874;79;21145;-79
2021/03/22 07:08:13;;;;;;;4.78;2.75;;;;;;;4.78;65.84;99485.03;1764674;80;21188;-80
2021/03/22 07:10:45;;;;;;;4.92;2.27;;;;;;;4.83;66.51;99494.81;1760950;79;21094;-77
2021/03/22 07:13:31;;;;;;;6.08;2.00;;;;;;;4.47;65.44;99500.07;1745994;80;21183;-77
2021/03/22 07:16:21;;;;;;;4.83;2.40;;;;;;;4.09;66.08;99495.44;1769375;80;21649;-79
2021/03/22 07:19:08;;;;;;;5.83;2.50;;;;;;;3.76;66.55;99504.38;1760621;79;21632;-79
2021/03/22 07:21:55;;;;;;;6.33;3.25;;;;;;;3.43;66.92;99499.97;1762092;80;21271;-82
2021/03/22 07:24:48;;;;;;;5.65;3.58;;;;;;;3.22;67.40;99502.14;1736573;81;21256;-81
2021/03/22 07:27:26;;;;;;;6.83;3.20;;;;;;;3.10;67.63;99501.08;1713886;83;21260;-79
2021/03/22 07:30:23;;;;;;;6.28;3.05;;;;;;;3.00;67.49;99513.33;1706117;83;21199;-80
2021/03/22 07:33:07;;;;;;;8.55;3.65;;;;;;;2.87;68.04;99507.99;1655800;84;21678;-81
2021/03/22 07:36:00;;;;;;;5.90;3.15;;;;;;;2.93;68.11;99504.45;1653849;84;21409;-79
2021/03/22 07:39:05;;;;;;;10.05;3.98;;;;;;;2.86;67.89;99501.98;1676633;83;21254;-79
2021/03/22 07:41:46;;;;;;;5.92;3.60;;;;;;;2.77;68.06;99503.44;1672794;83;21167;-82
2021/03/22 07:46:16;;;;;;;9.00;3.80;;;;;;;2.78;68.27;99503.86;1821583;77;22225;-82
2021/03/22 07:48:57;;;;;;;7.67;3.92;;;;;;;2.76;68.43;99510.77;1800530;77;21696;-81
2021/03/22 07:52:02;;;;;;;8.38;3.30;;;;;;;2.77;68.31;99520.19;1800152;78;21410;-81
2021/03/22 07:54:44;;;;;;;7.72;3.05;;;;;;;2.77;68.10;99533.08;1786490;78;21085;-82
2021/03/22 07:57:47;;;;;;;6.80;3.30;;;;;;;2.84;68.41;99532.11;1799777;78;21062;-82
2021/03/22 08:00:40;;;;;;;7.83;3.45;;;;;;;2.93;68.30;99532.81;1803810;78;21048;-83
2021/03/22 08:03:36;;;;;;;8.08;3.90;;;;;;;2.87;67.69;99539.78;1708925;81;21098;-80
2021/03/22 08:06:24;;;;;;;4.62;2.62;;;;;;;2.84;68.08;99531.27;1711451;81;22282;-82
2021/03/22 08:09:19;;;;;;;7.25;3.08;;;;;;;2.97;68.16;99531.86;1762427;78;27945;-82
2021/03/22 08:12:03;;;;;;;5.65;2.62;;;;;;;3.11;67.35;99534.60;1714160;82;21289;-83
2021/03/22 08:14:35;;;;;;;5.53;2.08;;;;;;;3.18;67.57;99531.45;1687770;83;21154;-81
2021/03/22 08:17:41;;;;;;;3.95;1.50;;;;;;;3.22;67.33;99533.10;1701295;83;21711;-83
2021/03/22 08:20:22;;;;;;;6.08;1.32;;;;;;;3.22;66.52;99527.94;1682844;83;22274;-81
2021/03/22 08:23:00;;;;;;;2.65;1.10;;;;;;;3.23;67.01;99518.02;1703047;82;21195;-82
2021/03/22 08:25:55;;;;;;;2.77;0.93;;;;;;;3.33;65.12;99532.44;1695727;83;21644;-82
2021/03/22 08:28:41;;;;;;;2.90;1.02;;;;;;;3.39;66.27;99521.55;1705802;82;22270;-81
2021/03/22 08:31:28;;;;;;;4.12;1.10;;;;;;;3.48;63.75;99530.41;1715757;82;21238;-82
2021/03/22 08:34:28;;;;;;;1.07;0.70;;;;;;;3.50;64.29;99543.70;1717923;83;24685;-82
2021/03/22 08:37:04;;;;;;;3.27;0.82;;;;;;;3.27;63.52;99548.47;1696574;82;21202;-81
2021/03/22 08:40:08;;;;;;;3.10;0.78;;;;;;;3.35;64.48;99539.69;1762600;76;23066;-82
2021/03/22 08:42:48;;;;;;;2.17;0.70;;;;;;;3.23;60.29;99552.85;1730710;80;21021;-82
2021/03/22 08:45:51;;;;;;;2.33;0.70;;;;;;;3.25;63.11;99553.67;1723053;80;21213;-82
2021/03/22 08:48:27;;;;;;;1.95;0.80;;;;;;;3.28;61.70;99558.77;1699585;82;21264;-84
2021/03/22 08:50:57;;;;;;;2.42;1.12;;;;;;;3.32;62.62;99565.56;1696968;83;21231;-83
2021/03/22 08:53:39;;;;;;;1.50;0.93;;;;;;;3.24;61.51;99566.15;1697827;82;21377;-83
2021/03/22 08:56:23;;;;;;;1.62;0.75;;;;;;;3.22;62.43;99556.32;1699860;82;21091;-83
2021/03/22 08:58:55;;;;;;;1.85;0.70;;;;;;;3.32;62.75;99557.81;1696875;82;21266;-84
2021/03/22 09:01:38;;;;;;;1.95;0.93;;;;;;;3.57;63.85;99557.31;1662158;84;21685;-83
2021/03/22 09:04:31;;;;;;;2.58;0.70;;;;;;;3.84;64.27;99562.73;1635720;86;21182;-85
2021/03/22 09:07:08;;;;;;;3.45;1.00;;;;;;;3.84;61.48;99563.62;1630560;85;21231;-82
2021/03/22 09:09:38;;;;;;;2.27;0.98;;;;;;;3.85;62.05;99559.30;1632429;86;21272;-81
2021/03/22 09:12:13;;;;;;;2.45;1.25;;;;;;;3.88;62.73;99566.97;1654754;84;21233;-82
2021/03/22 09:14:51;;;;;;;7.35;1.52;;;;;;;4.08;63.47;99569.09;1859708;75;22764;-82
2021/03/22 09:17:51;;;;;;;1.40;1.00;;;;;;;4.14;63.03;99574.96;1826649;77;21062;-82
2021/03/22 09:20:26;;;;;;;1.35;0.60;;;;;;;4.22;62.51;99570.46;1829025;76;21519;-83
2021/03/22 09:23:00;;;;;;;3.20;1.00;;;;;;;4.16;59.70;99580.95;1793865;77;21053;-84
2021/03/22 09:25:49;;;;;;;1.77;0.75;;;;;;;4.10;60.29;99583.69;1825125;77;21085;-83
2021/03/22 09:28:27;;;;;;;2.02;1.42;;;;;;;4.16;59.62;99583.53;1827190;77;21038;-81
2021/03/22 09:31:06;;;;;;;2.62;0.62;;;;;;;4.24;61.11;99589.37;1813747;76;21068;-82
2021/03/22 09:34:01;;;;;;;1.57;0.50;;;;;;;4.21;58.61;99597.20;1801365;77;21212;-82
2021/03/22 09:36:38;;;;;;;4.22;1.00;;;;;;;4.18;58.66;99597.28;1832430;76;21001;-83
2021/03/22 09:39:14;;;;;;;;;;;;;;;4.16;59.29;99599.04;1826039;77;21017;-82
2021/03/22 09:42:01;;;;;;;3.83;1.02;;;;;;;4.18;59.26;99599.86;1815203;76;20588;-83
2021/03/22 09:44:33;;;;;;;1.22;0.60;;;;;;;4.38;61.15;99586.91;1825216;77;21186;-82
2021/03/22 09:47:15;;;;;;;3.00;0.93;;;;;;;4.30;56.83;99587.54;1831253;75;21234;-83
2021/03/22 09:50:12;;;;;;;2.83;1.07;;;;;;;4.17;56.93;99594.30;1826758;76;21254;-83
2021/03/22 09:52:53;;;;;;;1.77;0.95;;;;;;;4.18;58.78;99593.85;1832300;75;21655;-84
2021/03/22 09:55:32;;;;;;;1.37;0.60;;;;;;;4.31;59.12;99596.53;1822212;76;22064;-82
2021/03/22 09:58:27;;;;;;;4.12;0.78;;;;;;;4.36;58.32;99597.72;1831241;77;21660;-82
2021/03/22 10:01:04;;;;;;;1.77;0.90;;;;;;;4.42;57.33;99601.45;1830104;76;21199;-83
2021/03/22 10:03:39;;;;;;;2.90;0.65;;;;;;;4.44;53.54;99615.20;1827463;77;21190;-77
2021/03/22 10:06:32;;;;;;;0.90;0.60;;;;;;;4.36;56.43;99595.14;1827083;76;21162;-84
2021/03/22 10:09:01;;;;;;;2.45;0.40;;;;;;;4.44;57.10;99606.15;1782506;78;21173;-87
2021/03/22 10:11:32;;;;;;;2.52;1.15;;;;;;;4.53;56.90;99605.91;1781927;78;21161;-81
2021/03/22 10:14:03;;;;;;;2.27;1.32;;;;;;;4.58;57.05;99611.83;1746290;80;22205;-82
2021/03/22 10:16:34;;;;;;;1.52;0.70;;;;;;;4.61;56.95;99608.32;1776118;79;21222;-78
2021/03/22 10:19:15;;;;;;;2.80;0.50;;;;;;;4.71;56.51;99605.47;1774054;78;21845;-76
2021/03/22 10:22:01;;;;;;;0.53;0.37;;;;;;;4.82;56.83;99600.03;1831289;77;22774;-77
2021/03/22 10:24:49;;;;;;;;;;;;;;;4.83;53.27;99607.34;1804159;77;21211;-75
2021/03/22 10:27:31;;;;;;;1.82;0.57;;;;;;;4.88;53.90;99623.60;1802737;78;21200;-78
2021/03/22 10:30:14;;;;;;;3.65;0.50;;;;;;;4.80;52.63;99620.36;1798150;77;21262;-79
2021/03/22 10:32:56;;;;;;;1.22;0.57;;;;;;;4.84;53.04;99625.39;1800743;77;21203;-79
2021/03/22 10:35:44;;;;;;;1.98;0.60;;;;;;;4.86;55.20;99618.91;1801930;77;21194;-79
2021/03/22 10:38:34;;;;;;;1.42;0.40;;;;;;;4.88;55.68;99615.39;1741870;80;21080;-78
2021/03/22 10:41:27;;;;;;;0.70;0.30;;;;;;;4.92;55.96;99623.91;1768923;79;21200;-78
2021/03/22 10:44:08;;;;;;;1.12;0.50;;;;;;;5.07;55.00;99619.65;1736518;80;21234;-79
2021/03/22 10:46:53;;;;;;;0.98;0.57;;;;;;;5.06;55.55;99619.67;1732815;80;21602;-82
2021/03/22 10:49:30;;;;;;;0.40;0.20;;;;;;;5.14;52.57;99627.64;1729691;81;21184;-80
2021/03/22 10:52:20;;;;;;;2.83;0.80;;;;;;;4.97;52.69;99628.53;1738013;80;21188;-81
2021/03/22 10:55:07;;;;;;;1.42;0.50;;;;;;;4.96;52.76;99622.97;1827837;77;23367;-80
2021/03/22 10:57:38;;;;;;;2.60;0.65;;;;;;;4.89;49.15;99638.22;1794302;78;21061;-79
2021/03/22 11:00:31;;;;;;;1.12;0.50;;;;;;;4.84;52.48;99633.61;1798078;78;21033;-81
2021/03/22 11:03:01;;;;;;;1.70;0.65;;;;;;;5.01;53.18;99634.02;1756536;80;21197;-81
2021/03/22 11:05:38;;;;;;;2.67;0.75;;;;;;;5.20;52.79;99641.31;1750179;80;21189;-80
2021/03/22 11:08:10;;;;;;;1.62;0.78;;;;;;;5.18;53.70;99641.79;1713396;81;21080;-81
2021/03/22 11:10:38;;;;;;;0.80;0.40;;;;;;;5.31;54.29;99648.34;1721956;81;21198;-80
2021/03/22 11:13:06;;;;;;;0.72;0.40;;;;;;;5.31;52.97;99651.78;1709323;80;21445;-78
2021/03/22 11:15:37;;;;;;;1.47;0.60;;;;;;;5.29;53.32;99639.34;1681051;83;21103;-80
2021/03/22 11:18:16;;;;;;;1.05;0.50;;;;;;;5.38;53.32;99649.44;1678218;82;21285;-81
2021/03/22 11:20:50;;;;;;;1.00;0.60;;;;;;;5.44;53.99;99651.02;1711744;82;21288;-80
2021/03/22 11:23:28;;;;;;;2.77;0.82;;;;;;;5.43;52.64;99649.30;1711617;82;21259;-77
2021/03/22 11:25:58;;;;;;;;;;;;;;;5.49;54.25;99646.98;1686403;83;21270;-81
2021/03/22 11:28:31;;;;;;;1.05;0.50;;;;;;;5.55;50.41;99648.98;1723493;81;20283;-81
2021/03/22 11:31:04;;;;;;;1.05;0.30;;;;;;;5.50;52.52;99649.55;1719758;80;21227;-84
2021/03/22 11:33:46;;;;;;;0.75;0.40;;;;;;;5.25;48.26;99642.05;1797327;77;22805;-82
2021/03/22 11:36:19;;;;;;;0.85;0.33;;;;;;;5.21;51.00;99646.47;1780952;78;21032;-81
2021/03/22 11:39:13;;;;;;;0.68;0.30;;;;;;;5.31;51.68;99644.47;1744697;78;21163;-79
2021/03/22 11:41:45;;;;;;;1.10;0.50;;;;;;;5.32;49.17;99646.15;1774101;78;21042;-79
2021/03/22 11:44:23;;;;;;;1.22;0.50;;;;;;;5.36;50.67;99640.02;1773295;78;21030;-80
2021/03/22 11:46:58;;;;;;;0.37;0.23;;;;;;;5.42;51.53;99642.43;1773058;78;21168;-82
2021/03/22 11:49:47;;;;;;;1.17;0.30;;;;;;;5.49;47.42;99656.05;1756028;78;21220;-80
2021/03/22 11:52:25;;;;;;;2.33;0.30;;;;;;;5.55;46.10;99647.68;1746886;78;21310;-81
2021/03/22 11:55:02;;;;;;;1.00;0.40;;;;;;;5.55;47.16;99646.39;1783393;78;21239;-79
2021/03/22 11:57:38;;;;;;;2.00;0.70;;;;;;;5.50;44.95;99637.89;1777112;78;21094;-81
2021/03/22 12:00:27;;;;;;;0.55;0.40;;;;;;;5.64;49.23;99636.66;1778695;78;21159;-80
2021/03/22 12:03:07;;;;;;;2.33;0.60;;;;;;;5.88;49.25;99635.96;1775832;78;21153;-80
2021/03/22 12:05:39;;;;;;;0.70;0.30;;;;;;;5.90;48.34;99635.45;1781897;78;21306;-80
2021/03/22 12:08:28;;;;;;;0.80;0.40;;;;;;;5.92;47.60;99627.19;1775639;78;21626;-81
2021/03/22 12:10:55;;;;;;;0.95;0.50;;;;;;;6.05;48.46;99623.38;1777741;78;21206;-79
2021/03/22 12:13:24;;;;;;;1.05;0.50;;;;;;;6.20;47.86;99618.61;1773775;78;21225;-78
2021/03/22 12:15:51;;;;;;;2.98;0.70;;;;;;;6.17;43.93;99636.86;1773792;78;21252;-80
2021/03/22 12:18:38;;;;;;;0.78;0.40;;;;;;;6.12;45.04;99634.39;1781874;78;21310;-79
2021/03/22 12:21:12;;;;;;;0.82;0.53;;;;;;;6.18;47.35;99630.77;1732691;81;21246;-80
2021/03/22 12:23:40;;;;;;;0.88;0.50;;;;;;;6.07;47.13;99628.95;1724148;81;21210;-77
2021/03/22 12:26:08;;;;;;;1.20;0.60;;;;;;;6.08;45.98;99624.16;1724180;81;21666;-80
2021/03/22 12:28:53;;;;;;;1.02;0.40;;;;;;;6.04;43.85;99629.43;1727091;81;21194;-80
2021/03/22 12:31:04;;;;;;;3.72;0.78;;;;;;;6.14;45.38;99631.77;1722433;79;21271;-80
2021/03/22 12:33:31;;;;;;;2.50;0.80;;;;;;;6.23;46.41;99627.59;1725942;79;21261;-80